Aviation Digital Data Service (ADDS)

Output produced by METARs form (1804 UTC 25 March 2019)
found at http://www.aviationweather.gov/metar/data/
 
Forecast for: RJOM (MATSUYAMA AIRPOR, JP)
Text: TAF RJOM 251706Z 2518/2700 12004KT 9999 FEW030
Forecast period: 1800 to 2100 UTC 25 March 2019
Forecast type: FROM: standard forecast or significant change
Winds: from the ESE (120 degrees) at 5 MPH (4 knots; 2.1 m/s)
Visibility: 6 or more miles 10+ km)
Ceiling: at least 12,000 feet AGL
Clouds: few clouds at 3000 feet AGL
Weather: no significant weather forecast for this period
Text: BECMG 2521/2523 26012KT
Forecast period: 2100 UTC 25 March 2019 to 1200 UTC 26 March 2019
Forecast type: BECOMING: Conditions expected to become as follows by 2300 UTC 25 March 2019
Winds: from the W (260 degrees) at 14 MPH (12 knots; 6.2 m/s)
Visibility: 6 or more miles 10+ km)
Ceiling: at least 12,000 feet AGL
Clouds: few clouds at 3000 feet AGL
Weather: no significant weather forecast for this period
Text: BECMG 2612/2615 12004KT
Forecast period: 1200 UTC 26 March 2019 to 0000 UTC 27 March 2019
Forecast type: BECOMING: Conditions expected to become as follows by 1500 UTC 26 March 2019
Winds: from the ESE (120 degrees) at 5 MPH (4 knots; 2.1 m/s)
Visibility: 6 or more miles 10+ km)
Ceiling: at least 12,000 feet AGL
Clouds: few clouds at 3000 feet AGL
Weather: no significant weather forecast for this period